Time;durP1;ratioP1;P1;durP2;ratioP2;P2;SDS_P1;SDS_P2;PMS_P1;PMS_P2;Temp;Humidity;BMP_temperature;BMP_pressure;BME280_temperature;BME280_humidity;BME280_pressure;Samples;Min_cycle;Max_cycle;Signal;HPM_P1;HPM_P2
2023/01/04 00:00:14;;;;;;;;;;;;;;;10.06;100.00;101867.50;5274564;28;19917;-75
2023/01/04 00:02:45;;;;;;;;;;;;;;;10.08;100.00;101856.00;5277768;28;19928;-75
2023/01/04 00:05:17;;;;;;;;;;;;;;;10.08;100.00;101852.53;5276903;28;20011;-75
2023/01/04 00:07:48;;;;;;;;;;;;;;;10.14;100.00;101847.72;5253203;28;19935;-75
2023/01/04 00:10:19;;;;;;;;;;;;;;;10.11;100.00;101844.44;5270643;28;19989;-75
2023/01/04 00:12:50;;;;;;;;;;;;;;;10.02;100.00;101834.59;5277785;28;19955;-75
2023/01/04 00:15:22;;;;;;;;;;;;;;;9.99;100.00;101828.63;5271980;28;19917;-75
2023/01/04 00:17:53;;;;;;;;;;;;;;;10.04;100.00;101832.72;5276026;28;20332;-75
2023/01/04 00:20:24;;;;;;;;;;;;;;;9.95;100.00;101828.94;5273571;28;19974;-75
2023/01/04 00:22:56;;;;;;;;;;;;;;;10.01;100.00;101827.69;5276509;28;19912;-75
2023/01/04 00:25:27;;;;;;;;;;;;;;;9.99;100.00;101817.31;5270111;28;19994;-75
2023/01/04 00:27:58;;;;;;;;;;;;;;;10.01;100.00;101812.84;5275520;28;19912;-75
2023/01/04 00:30:29;;;;;;;;;;;;;;;10.06;100.00;101802.88;5275313;28;20370;-76
2023/01/04 00:33:01;;;;;;;;;;;;;;;10.07;100.00;101807.16;5271999;28;19923;-75
2023/01/04 00:35:32;;;;;;;;;;;;;;;10.06;100.00;101781.09;5274513;28;19920;-75
2023/01/04 00:38:03;;;;;;;;;;;;;;;10.07;100.00;101786.22;5273745;28;19916;-76
2023/01/04 00:40:34;;;;;;;;;;;;;;;9.98;100.00;101785.06;5273363;28;20299;-76
2023/01/04 00:43:06;;;;;;;;;;;;;;;10.10;100.00;101783.41;5271776;28;19916;-75
2023/01/04 00:45:37;;;;;;;;;;;;;;;10.03;100.00;101773.44;5275293;28;19921;-75
2023/01/04 00:48:08;;;;;;;;;;;;;;;10.06;100.00;101775.88;5273716;28;19912;-75
2023/01/04 00:50:39;;;;;;;;;;;;;;;10.16;100.00;101769.91;5271872;28;19954;-75
2023/01/04 00:53:11;;;;;;;;;;;;;;;10.15;100.00;101767.38;5273952;28;20007;-75
2023/01/04 00:55:42;;;;;;;;;;;;;;;10.26;100.00;101767.50;5274708;28;19916;-75
2023/01/04 00:58:13;;;;;;;;;;;;;;;10.04;100.00;101760.28;5272473;28;19912;-75
2023/01/04 01:00:44;;;;;;;;;;;;;;;10.21;100.00;101753.88;5269887;28;19924;-75
2023/01/04 01:03:16;;;;;;;;;;;;;;;10.18;100.00;101746.22;5272988;28;19939;-75
2023/01/04 01:05:47;;;;;;;;;;;;;;;10.17;100.00;101744.56;5271017;28;19919;-75
2023/01/04 01:08:24;;;;;;;;;;;;;;;10.19;100.00;101758.34;5266236;28;19924;-75
2023/01/04 01:11:01;;;;;;;;;;;;;;;10.18;100.00;101746.22;5269585;28;19920;-75
2023/01/04 01:13:32;;;;;;;;;;;;;;;10.26;100.00;101735.25;5269399;28;19912;-75
2023/01/04 01:16:04;;;;;;;;;;;;;;;10.33;100.00;101736.50;5269481;28;20342;-75
2023/01/04 01:18:36;;;;;;;;;;;;;;;10.23;100.00;101724.03;5270141;28;20045;-75
2023/01/04 01:21:10;;;;;;;;;;;;;;;10.31;100.00;101744.47;5269633;28;19912;-75
2023/01/04 01:23:42;;;;;;;;;;;;;;;10.23;100.00;101731.88;5271401;28;19923;-75
2023/01/04 01:26:15;;;;;;;;;;;;;;;10.36;100.00;101731.88;5266551;28;20389;-75
2023/01/04 01:28:46;;;;;;;;;;;;;;;10.23;100.00;101738.91;5272239;28;19908;-76
2023/01/04 01:31:22;;;;;;;;;;;;;;;10.39;100.00;101723.81;5267426;28;19924;-75
2023/01/04 01:33:54;;;;;;;;;;;;;;;10.42;100.00;101725.41;5268406;28;19916;-75
2023/01/04 01:36:25;;;;;;;;;;;;;;;10.33;100.00;101720.78;5270273;28;19927;-76
2023/01/04 01:38:56;;;;;;;;;;;;;;;10.41;100.00;101723.69;5270891;28;19916;-75
2023/01/04 01:41:29;;;;;;;;;;;;;;;10.46;100.00;101711.97;5268004;28;19913;-75
2023/01/04 01:44:19;;;;;;;;;;;;;;;10.40;100.00;101717.63;5270528;28;19959;-75
2023/01/04 01:46:52;;;;;;;;;;;;;;;10.39;100.00;101708.09;5271609;28;19908;-75
2023/01/04 01:49:26;;;;;;;;;;;;;;;10.41;100.00;101716.66;5267343;28;19928;-75
2023/01/04 01:51:58;;;;;;;;;;;;;;;10.41;100.00;101713.22;5271972;28;19919;-75
2023/01/04 01:54:39;;;;;;;;;;;;;;;10.35;100.00;101708.44;5275549;28;19942;-75
2023/01/04 01:57:12;;;;;;;;;;;;;;;10.43;100.00;101708.72;5274295;28;19931;-75
2023/01/04 01:59:46;;;;;;;;;;;;;;;10.41;100.00;101710.59;5273363;28;19948;-76
2023/01/04 02:02:17;;;;;;;;;;;;;;;10.38;100.00;101710.81;5273430;28;20288;-75
2023/01/04 02:04:49;;;;;;;;;;;;;;;10.46;100.00;101701.50;5272061;28;19925;-76
2023/01/04 02:07:22;;;;;;;;;;;;;;;10.41;100.00;101700.13;5272701;28;20388;-76
2023/01/04 02:09:55;;;;;;;;;;;;;;;10.43;100.00;101708.72;5275684;28;20385;-76
2023/01/04 02:12:26;;;;;;;;;;;;;;;10.46;100.00;101705.91;5275466;28;19921;-77
2023/01/04 02:14:57;;;;;;;;;;;;;;;10.47;100.00;101715.41;5273553;28;19919;-77
2023/01/04 02:17:54;;;;;;;;;;;;;;;10.52;100.00;101717.72;5271789;28;19921;-75
2023/01/04 02:20:36;;;;;;;;;;;;;;;10.47;100.00;101711.00;5227255;28;19920;-77
2023/01/04 02:23:19;;;;;;;;;;;;;;;10.46;100.00;101706.72;5271147;28;20023;-77
2023/01/04 02:26:09;;;;;;;;;;;;;;;10.51;100.00;101706.41;5271969;28;20009;-74
2023/01/04 02:28:57;;;;;;;;;;;;;;;10.62;100.00;101714.34;5269747;28;19916;-76
2023/01/04 02:31:31;;;;;;;;;;;;;;;10.59;100.00;101713.72;5269693;28;19935;-76
2023/01/04 02:34:07;;;;;;;;;;;;;;;10.50;100.00;101693.41;5269861;28;19966;-76
2023/01/04 02:36:47;;;;;;;;;;;;;;;10.74;100.00;101690.81;5267381;28;19967;-75
2023/01/04 02:39:44;;;;;;;;;;;;;;;10.65;100.00;101681.84;5271580;28;20294;-76
2023/01/04 02:45:28;;;;;;;;;;;;;;;10.81;100.00;101671.91;5279079;28;19912;-75
2023/01/04 02:50:57;;;;;;;;;;;;;;;10.74;100.00;101668.06;5273877;28;19916;-76
2023/01/04 02:53:30;;;;;;;;;;;;;;;10.81;100.00;101650.94;5275212;28;19942;-76
2023/01/04 02:56:17;;;;;;;;;;;;;;;10.89;100.00;101648.59;5276019;28;19923;-76
2023/01/04 02:58:48;;;;;;;;;;;;;;;10.95;100.00;101655.19;5276118;28;19973;-76
2023/01/04 03:07:54;;;;;;;;;;;;;;;11.02;100.00;101640.66;5272585;28;19948;-74
2023/01/04 03:10:34;;;;;;;;;;;;;;;10.93;100.00;101639.56;5273412;28;20354;-76
2023/01/04 03:13:13;;;;;;;;;;;;;;;11.00;100.00;101629.47;5274884;28;19913;-76
2023/01/04 03:15:53;;;;;;;;;;;;;;;11.01;100.00;101622.44;5277039;28;19916;-76
2023/01/04 03:18:29;;;;;;;;;;;;;;;11.06;100.00;101623.78;5276883;28;19920;-75
2023/01/04 03:21:01;;;;;;;;;;;;;;;11.07;100.00;101619.34;5277431;28;20389;-76
2023/01/04 03:35:26;;;;;;;;;;;;;;;11.03;100.00;101618.75;5276383;28;19955;-77
2023/01/04 03:49:58;;;;;;;;;;;;;;;11.16;100.00;101588.03;5277501;28;20304;-76
2023/01/04 03:52:31;;;;;;;;;;;;;;;11.15;100.00;101593.38;5275344;28;19943;-77
2023/01/04 03:55:04;;;;;;;;;;;;;;;11.29;100.00;101589.72;5260373;28;19923;-77
2023/01/04 03:57:36;;;;;;;;;;;;;;;11.36;100.00;101568.13;5274791;28;19919;-77
2023/01/04 04:00:09;;;;;;;;;;;;;;;11.39;100.00;101569.69;5260225;28;20357;-77
2023/01/04 04:02:41;;;;;;;;;;;;;;;11.34;100.00;101574.47;5274717;28;20324;-77
2023/01/04 04:08:28;;;;;;;;;;;;;;;11.35;100.00;101574.34;5275709;28;20003;-77
2023/01/04 04:13:50;;;;;;;;;;;;;;;11.43;100.00;101571.13;5276135;28;19955;-77
2023/01/04 04:16:21;;;;;;;;;;;;;;;11.46;100.00;101563.03;5274327;28;19963;-77
2023/01/04 04:18:52;;;;;;;;;;;;;;;11.34;100.00;101554.31;5274173;28;20107;-77
2023/01/04 04:21:24;;;;;;;;;;;;;;;11.42;100.00;101544.06;5272670;28;19924;-76
2023/01/04 04:23:55;;;;;;;;;;;;;;;11.45;100.00;101546.47;5274218;28;19942;-76
2023/01/04 04:26:26;;;;;;;;;;;;;;;11.49;100.00;101547.06;5273422;28;20026;-77
2023/01/04 04:28:57;;;;;;;;;;;;;;;11.47;100.00;101556.00;5274381;28;19916;-76
2023/01/04 04:31:29;;;;;;;;;;;;;;;11.43;100.00;101542.28;5273181;28;20390;-76
2023/01/04 04:34:00;;;;;;;;;;;;;;;11.42;100.00;101544.06;5274739;28;20015;-77
2023/01/04 04:36:31;;;;;;;;;;;;;;;11.50;100.00;101525.09;5272716;28;20396;-77
2023/01/04 04:39:02;;;;;;;;;;;;;;;11.56;100.00;101522.00;5274061;28;19924;-77
2023/01/04 04:41:43;;;;;;;;;;;;;;;11.59;100.00;101515.66;5274802;28;19917;-77
2023/01/04 04:44:15;;;;;;;;;;;;;;;11.46;100.00;101515.81;5275543;28;20025;-77
2023/01/04 04:46:47;;;;;;;;;;;;;;;11.64;100.00;101529.28;5275792;28;19920;-76
2023/01/04 04:49:18;;;;;;;;;;;;;;;11.66;100.00;101519.47;5273499;28;20266;-75
2023/01/04 04:51:49;;;;;;;;;;;;;;;11.75;100.00;101520.56;5272765;28;19928;-77
2023/01/04 04:54:21;;;;;;;;;;;;;;;11.79;100.00;101512.31;5273177;28;19917;-77
2023/01/04 04:56:52;;;;;;;;;;;;;;;11.78;100.00;101512.44;5273875;28;20430;-75
2023/01/04 04:59:23;;;;;;;;;;;;;;;11.68;100.00;101496.59;5273843;28;20022;-77
2023/01/04 05:01:54;;;;;;;;;;;;;;;11.72;100.00;101511.13;5271982;28;19919;-77
2023/01/04 05:04:26;;;;;;;;;;;;;;;11.67;100.00;101505.44;5274755;28;19920;-77
2023/01/04 05:06:57;;;;;;;;;;;;;;;11.87;100.00;101496.81;5276093;28;19908;-75
2023/01/04 05:09:28;;;;;;;;;;;;;;;11.92;100.00;101499.06;5271711;28;19916;-77
2023/01/04 05:14:49;;;;;;;;;;;;;;;11.92;100.00;101485.94;5273593;28;19950;-75
2023/01/04 05:17:20;;;;;;;;;;;;;;;12.04;100.00;101499.88;5273518;28;19938;-77
2023/01/04 05:19:51;;;;;;;;;;;;;;;12.03;100.00;101488.53;5275645;28;20029;-74
2023/01/04 05:22:22;;;;;;;;;;;;;;;12.01;100.00;101479.97;5274734;28;19916;-77
2023/01/04 05:24:53;;;;;;;;;;;;;;;11.99;100.00;101481.03;5255105;28;19921;-77
2023/01/04 05:27:25;;;;;;;;;;;;;;;12.04;100.00;101478.88;5272071;28;20499;-77
2023/01/04 05:32:46;;;;;;;;;;;;;;;12.09;100.00;101472.31;5274696;28;20376;-77
2023/01/04 05:35:17;;;;;;;;;;;;;;;12.14;100.00;101477.19;5273089;28;19912;-77
2023/01/04 05:37:48;;;;;;;;;;;;;;;12.17;100.00;101476.94;5275967;28;19917;-77
2023/01/04 05:40:20;;;;;;;;;;;;;;;12.18;100.00;101462.84;5271429;28;19953;-75
2023/01/04 05:42:51;;;;;;;;;;;;;;;12.28;100.00;101455.03;5268832;28;19924;-76
2023/01/04 05:45:22;;;;;;;;;;;;;;;12.20;100.00;101460.94;5269985;28;19912;-77
2023/01/04 05:47:53;;;;;;;;;;;;;;;12.14;100.00;101467.50;5274689;28;19978;-77
2023/01/04 05:50:25;;;;;;;;;;;;;;;12.15;100.00;101457.81;5274825;28;20015;-76
2023/01/04 05:52:56;;;;;;;;;;;;;;;12.18;100.00;101465.47;5275837;28;20387;-77
2023/01/04 05:55:27;;;;;;;;;;;;;;;12.26;100.00;101451.69;5275577;28;19912;-77
2023/01/04 05:57:58;;;;;;;;;;;;;;;12.15;100.00;101442.88;5276300;28;19915;-76
2023/01/04 06:00:30;;;;;;;;;;;;;;;12.30;100.00;101434.72;5270945;28;20494;-77
2023/01/04 06:03:01;;;;;;;;;;;;;;;12.33;100.00;101443.19;5274857;28;19943;-77
2023/01/04 06:05:32;;;;;;;;;;;;;;;12.23;100.00;101460.66;5275006;28;19966;-77
2023/01/04 06:08:04;;;;;;;;;;;;;;;12.12;100.00;101444.94;5274683;28;19927;-77
2023/01/04 06:10:35;;;;;;;;;;;;;;;12.23;100.00;101452.78;5274853;28;19946;-77
2023/01/04 06:13:06;;;;;;;;;;;;;;;12.39;100.00;101460.25;5273066;28;20010;-77
2023/01/04 06:15:37;;;;;;;;;;;;;;;12.37;100.00;101456.91;5270679;28;19912;-77
2023/01/04 06:18:09;;;;;;;;;;;;;;;12.38;100.00;101459.38;5268363;28;19920;-77
2023/01/04 06:20:41;;;;;;;;;;;;;;;12.41;100.00;101474.91;5255919;28;19923;-76
2023/01/04 06:23:12;;;;;;;;;;;;;;;12.34;100.00;101462.41;5271339;28;19921;-77
2023/01/04 06:25:44;;;;;;;;;;;;;;;12.43;100.00;101460.84;5273141;28;20342;-76
2023/01/04 06:28:15;;;;;;;;;;;;;;;12.45;100.00;101454.47;5270443;28;19921;-77
2023/01/04 06:30:46;;;;;;;;;;;;;;;12.39;100.00;101442.69;5265492;28;19923;-77
2023/01/04 06:33:17;;;;;;;;;;;;;;;12.44;100.00;101441.47;5272264;28;20372;-76
2023/01/04 06:35:52;;;;;;;;;;;;;;;12.32;100.00;101432.81;5271329;28;19924;-77
2023/01/04 06:38:23;;;;;;;;;;;;;;;12.29;100.00;101433.06;5272535;28;19948;-77
2023/01/04 06:40:54;;;;;;;;;;;;;;;12.32;100.00;101438.91;5274813;28;20400;-77
2023/01/04 06:43:26;;;;;;;;;;;;;;;12.30;100.00;101437.34;5273588;28;19943;-77
2023/01/04 06:45:57;;;;;;;;;;;;;;;12.29;100.00;101452.28;5273274;28;20034;-77
2023/01/04 06:48:28;;;;;;;;;;;;;;;12.37;100.00;101462.97;5273919;28;20002;-77
2023/01/04 06:50:59;;;;;;;;;;;;;;;12.48;100.00;101456.84;5270215;28;20376;-76
2023/01/04 06:53:31;;;;;;;;;;;;;;;12.35;100.00;101456.19;5267925;28;19912;-77
2023/01/04 06:56:02;;;;;;;;;;;;;;;12.40;100.00;101449.59;5267846;28;19916;-77
2023/01/04 06:58:34;;;;;;;;;;;;;;;12.48;100.00;101456.00;5274717;28;20413;-77
2023/01/04 07:01:05;;;;;;;;;;;;;;;12.36;100.00;101442.94;5257966;28;19920;-77
2023/01/04 07:03:36;;;;;;;;;;;;;;;12.38;100.00;101433.13;5237994;28;19917;-76
2023/01/04 07:06:09;;;;;;;;;;;;;;;12.51;100.00;101434.75;5267172;28;19995;-76
2023/01/04 07:08:40;;;;;;;;;;;;;;;12.55;100.00;101431.72;5264164;28;19967;-77
2023/01/04 07:11:11;;;;;;;;;;;;;;;12.46;100.00;101432.47;5266529;28;19921;-77
2023/01/04 07:13:42;;;;;;;;;;;;;;;12.62;100.00;101422.38;5263021;28;19912;-76
2023/01/04 07:16:13;;;;;;;;;;;;;;;12.67;100.00;101443.00;5260333;28;20281;-77
2023/01/04 07:18:45;;;;;;;;;;;;;;;12.66;100.00;101428.19;5270961;28;19967;-77
2023/01/04 07:21:16;;;;;;;;;;;;;;;12.75;100.00;101411.63;5273299;28;20460;-76
2023/01/04 07:23:47;;;;;;;;;;;;;;;12.67;100.00;101411.44;5266694;28;20520;-77
2023/01/04 07:26:18;;;;;;;;;;;;;;;12.74;100.00;101419.66;5268820;28;20370;-77
2023/01/04 07:31:40;;;;;;;;;;;;;;;12.78;100.00;101405.28;5274795;28;19972;-76
2023/01/04 07:34:11;;;;;;;;;;;;;;;12.82;100.00;101409.31;5276116;28;19951;-76
2023/01/04 07:36:43;;;;;;;;;;;;;;;12.91;100.00;101405.88;5275232;28;19958;-77
2023/01/04 07:39:15;;;;;;;;;;;;;;;12.87;100.00;101397.44;5277771;28;19917;-77
2023/01/04 07:41:47;;;;;;;;;;;;;;;12.94;100.00;101391.66;5274310;28;19917;-77
2023/01/04 07:44:20;;;;;;;;;;;;;;;12.95;100.00;101395.94;5276655;28;19920;-76
2023/01/04 07:46:51;;;;;;;;;;;;;;;12.93;100.00;101398.72;5277816;28;20293;-77
2023/01/04 07:49:22;;;;;;;;;;;;;;;12.81;100.00;101390.09;5273229;28;19912;-76
2023/01/04 07:51:54;;;;;;;;;;;;;;;12.91;100.00;101387.47;5265732;28;19963;-76
2023/01/04 07:54:25;;;;;;;;;;;;;;;12.88;100.00;101370.19;5271579;28;20312;-77
2023/01/04 07:56:56;;;;;;;;;;;;;;;13.08;100.00;101380.78;5273658;28;20053;-77
2023/01/04 07:59:27;;;;;;;;;;;;;;;13.06;100.00;101377.44;5257090;28;19924;-77
2023/01/04 08:01:58;;;;;;;;;;;;;;;13.02;100.00;101381.31;5275446;28;20381;-74
2023/01/04 08:04:29;;;;;;;;;;;;;;;13.05;100.00;101367.88;5272801;28;19912;-77
2023/01/04 08:07:01;;;;;;;;;;;;;;;13.14;100.00;101380.22;5274956;28;20345;-77
2023/01/04 08:09:32;;;;;;;;;;;;;;;12.94;100.00;101383.75;5275650;28;19916;-76
2023/01/04 08:12:03;;;;;;;;;;;;;;;13.10;100.00;101381.47;5269226;28;19974;-76
2023/01/04 08:14:34;;;;;;;;;;;;;;;13.11;100.00;101388.41;5274496;28;19919;-76
2023/01/04 08:17:06;;;;;;;;;;;;;;;12.94;100.00;101379.34;5273558;28;19946;-76
2023/01/04 08:19:37;;;;;;;;;;;;;;;13.17;100.00;101381.78;5277010;28;19966;-76
2023/01/04 08:22:09;;;;;;;;;;;;;;;13.09;100.00;101398.22;5272218;28;20349;-76
2023/01/04 08:24:40;;;;;;;;;;;;;;;13.20;100.00;101392.03;5266381;28;19912;-76
2023/01/04 08:27:11;;;;;;;;;;;;;;;13.13;100.00;101394.34;5255087;28;20012;-76
2023/01/04 08:29:43;;;;;;;;;;;;;;;13.09;100.00;101396.41;5252709;28;19928;-76
2023/01/04 08:32:14;;;;;;;;;;;;;;;13.20;100.00;101390.22;5272291;28;19952;-76
2023/01/04 08:34:45;;;;;;;;;;;;;;;13.20;100.00;101386.78;5265882;28;20304;-76
2023/01/04 08:37:16;;;;;;;;;;;;;;;13.05;100.00;101408.19;5267089;28;19920;-76
2023/01/04 08:39:47;;;;;;;;;;;;;;;13.18;100.00;101410.56;5268797;28;19963;-76
2023/01/04 08:42:18;;;;;;;;;;;;;;;13.26;100.00;101407.28;5275902;28;20384;-76
2023/01/04 08:44:50;;;;;;;;;;;;;;;13.12;100.00;101411.13;5274046;28;19927;-76
2023/01/04 08:47:21;;;;;;;;;;;;;;;13.30;100.00;101404.28;5273665;28;19919;-76
2023/01/04 08:49:52;;;;;;;;;;;;;;;13.36;100.00;101409.00;5276343;28;19908;-76
2023/01/04 08:52:24;;;;;;;;;;;;;;;13.31;100.00;101411.22;5270667;28;20293;-76
2023/01/04 08:54:55;;;;;;;;;;;;;;;13.37;100.00;101405.41;5271850;28;19917;-76
2023/01/04 08:57:26;;;;;;;;;;;;;;;13.32;100.00;101417.31;5273465;28;20024;-76
2023/01/04 08:59:57;;;;;;;;;;;;;;;13.45;100.00;101415.28;5272445;28;19916;-76
2023/01/04 09:02:28;;;;;;;;;;;;;;;13.50;100.00;101412.22;5273894;28;19928;-77
2023/01/04 09:05:02;;;;;;;;;;;;;;;13.58;100.00;101415.84;5268695;28;20477;-76
2023/01/04 09:07:33;;;;;;;;;;;;;;;13.62;100.00;101411.16;5274625;28;19916;-76
2023/01/04 09:10:05;;;;;;;;;;;;;;;13.54;100.00;101422.34;5271408;28;19912;-76
2023/01/04 09:12:36;;;;;;;;;;;;;;;13.61;100.00;101402.41;5269761;28;20058;-76
2023/01/04 09:15:07;;;;;;;;;;;;;;;13.62;100.00;101411.16;5252797;28;20259;-76
2023/01/04 09:17:39;;;;;;;;;;;;;;;13.55;100.00;101405.59;5269749;28;20647;-73
2023/01/04 09:20:10;;;;;;;;;;;;;;;13.59;100.00;101404.34;5250090;28;19924;-74
2023/01/04 09:22:41;;;;;;;;;;;;;;;13.73;100.00;101412.81;5271535;28;19925;-74
2023/01/04 09:25:12;;;;;;;;;;;;;;;13.63;100.00;101408.34;5266177;28;19928;-74
2023/01/04 09:27:44;;;;;;;;;;;;;;;13.53;100.00;101419.88;5265705;28;20291;-74
2023/01/04 09:30:15;;;;;;;;;;;;;;;13.64;100.00;101417.13;5271569;28;20240;-74
2023/01/04 09:32:46;;;;;;;;;;;;;;;13.55;100.00;101417.91;5272632;28;19920;-74
2023/01/04 09:35:18;;;;;;;;;;;;;;;13.66;100.00;101414.34;5274826;28;19908;-74
2023/01/04 09:37:49;;;;;;;;;;;;;;;13.74;100.00;101428.47;5272566;28;19939;-74
2023/01/04 09:40:23;;;;;;;;;;;;;;;13.59;100.00;101414.88;5272885;28;20011;-74
2023/01/04 09:42:55;;;;;;;;;;;;;;;13.51;100.00;101414.72;5272526;28;19913;-76
2023/01/04 09:45:27;;;;;;;;;;;;;;;13.50;100.00;101406.97;5275825;28;20320;-76
2023/01/04 09:48:03;;;;;;;;;;;;;;;13.57;100.00;101413.38;5271345;28;19916;-76
2023/01/04 09:50:40;;;;;;;;;;;;;;;13.55;100.00;101418.75;5268657;28;19935;-76
2023/01/04 09:53:11;;;;;;;;;;;;;;;13.54;100.00;101409.19;5259168;28;19951;-76
2023/01/04 09:55:46;;;;;;;;;;;;;;;13.55;100.00;101410.00;5268313;28;19951;-76
2023/01/04 09:58:29;;;;;;;;;;;;;;;13.52;100.00;101413.75;5257065;28;20008;-77
2023/01/04 10:01:03;;;;;;;;;;;;;;;13.57;100.00;101400.19;5259332;28;20021;-76
2023/01/04 10:03:37;;;;;;;;;;;;;;;13.61;100.00;101398.97;5266688;28;19931;-77
2023/01/04 10:06:10;;;;;;;;;;;;;;;13.49;100.00;101403.50;5268005;28;20016;-76
2023/01/04 10:08:42;;;;;;;;;;;;;;;13.54;100.00;101390.75;5270096;28;20016;-76
2023/01/04 10:11:18;;;;;;;;;;;;;;;13.59;100.00;101398.25;5270934;28;19923;-77
2023/01/04 10:13:52;;;;;;;;;;;;;;;13.53;100.00;101380.38;5268349;28;19917;-76
2023/01/04 10:16:38;;;;;;;;;;;;;;;13.53;100.00;101388.28;5271980;28;20393;-76
2023/01/04 10:19:35;;;;;;;;;;;;;;;13.54;100.00;101392.56;5267962;28;19916;-77
2023/01/04 10:22:06;;;;;;;;;;;;;;;13.41;100.00;101389.34;5272230;28;19971;-77
2023/01/04 10:24:47;;;;;;;;;;;;;;;13.49;100.00;101392.97;5271075;28;19908;-77
2023/01/04 10:27:32;;;;;;;;;;;;;;;13.48;100.00;101387.81;5264347;28;19912;-75
2023/01/04 10:30:15;;;;;;;;;;;;;;;13.46;100.00;101395.03;5262220;28;19921;-75
2023/01/04 10:32:52;;;;;;;;;;;;;;;13.45;100.00;101393.34;5269544;28;20335;-74
2023/01/04 10:35:24;;;;;;;;;;;;;;;13.52;100.00;101405.84;5264213;28;19916;-75
2023/01/04 10:38:00;;;;;;;;;;;;;;;13.47;100.00;101391.44;5267895;28;19959;-75
2023/01/04 10:40:34;;;;;;;;;;;;;;;13.24;100.00;101388.19;5257612;28;19917;-74
2023/01/04 10:43:14;;;;;;;;;;;;;;;13.43;100.00;101377.72;5265482;28;19931;-74
2023/01/04 10:45:53;;;;;;;;;;;;;;;13.32;100.00;101377.81;5265779;28;19920;-74
2023/01/04 10:48:37;;;;;;;;;;;;;;;13.47;100.00;101380.91;5252945;28;19920;-74
2023/01/04 10:51:11;;;;;;;;;;;;;;;13.35;100.00;101373.13;5268198;28;19916;-74
2023/01/04 10:53:45;;;;;;;;;;;;;;;13.37;100.00;101375.63;5270512;28;20360;-74
2023/01/04 10:56:26;;;;;;;;;;;;;;;13.46;100.00;101374.00;5267844;28;19970;-74
2023/01/04 10:59:01;;;;;;;;;;;;;;;13.44;100.00;101366.22;5271762;28;19912;-74
2023/01/04 11:01:40;;;;;;;;;;;;;;;13.42;100.00;101362.06;5273244;28;20373;-74
2023/01/04 11:04:20;;;;;;;;;;;;;;;13.41;100.00;101376.19;5251927;28;20271;-75
2023/01/04 11:06:58;;;;;;;;;;;;;;;13.43;100.00;101379.53;5269051;28;20011;-74
2023/01/04 11:09:34;;;;;;;;;;;;;;;13.26;100.00;101373.94;5266003;28;20417;-74
2023/01/04 11:12:06;;;;;;;;;;;;;;;13.41;100.00;101377.03;5268608;28;19921;-75
2023/01/04 11:14:38;;;;;;;;;;;;;;;13.42;100.00;101368.16;5265412;28;19912;-74
2023/01/04 11:17:10;;;;;;;;;;;;;;;13.37;100.00;101378.25;5265605;28;19922;-74
2023/01/04 11:19:41;;;;;;;;;;;;;;;13.38;100.00;101377.31;5273157;28;20350;-75
2023/01/04 11:22:16;;;;;;;;;;;;;;;13.50;100.00;101359.59;5263646;28;19923;-74
2023/01/04 11:24:50;;;;;;;;;;;;;;;13.49;100.00;101374.56;5275868;28;20262;-74
2023/01/04 11:27:24;;;;;;;;;;;;;;;13.53;100.00;101381.22;5272522;28;19944;-74
2023/01/04 11:29:59;;;;;;;;;;;;;;;13.59;100.00;101382.44;5277999;28;19908;-74
2023/01/04 11:32:52;;;;;;;;;;;;;;;13.57;100.00;101381.78;5275011;28;19912;-74
2023/01/04 11:35:36;;;;;;;;;;;;;;;13.63;100.00;101370.66;5277276;28;19919;-74
2023/01/04 11:38:15;;;;;;;;;;;;;;;13.54;100.00;101355.72;5272563;28;19931;-74
2023/01/04 11:41:05;;;;;;;;;;;;;;;13.45;100.00;101381.06;5277216;28;19916;-75
2023/01/04 11:43:38;;;;;;;;;;;;;;;13.38;100.00;101382.56;5274345;28;19917;-74
2023/01/04 11:46:15;;;;;;;;;;;;;;;13.53;100.00;101377.75;5272297;28;19951;-75
2023/01/04 11:48:46;;;;;;;;;;;;;;;13.43;100.00;101366.34;5274416;28;19912;-75
2023/01/04 11:51:31;;;;;;;;;;;;;;;13.44;100.00;101378.53;5271573;28;19924;-75
2023/01/04 11:54:12;;;;;;;;;;;;;;;13.54;100.00;101384.66;5270363;28;19922;-75
2023/01/04 11:56:56;;;;;;;;;;;;;;;13.48;100.00;101385.19;5270814;28;19923;-75
2023/01/04 11:59:28;;;;;;;;;;;;;;;13.43;100.00;101392.69;5272688;28;20285;-75
2023/01/04 12:02:28;;;;;;;;;;;;;;;13.43;100.00;101390.03;5274521;28;19920;-75
2023/01/04 12:04:59;;;;;;;;;;;;;;;13.42;100.00;101377.88;5244485;28;19916;-75
2023/01/04 12:07:32;;;;;;;;;;;;;;;13.44;100.00;101379.38;5270824;28;19919;-75
2023/01/04 12:10:25;;;;;;;;;;;;;;;13.52;100.00;101376.06;5273340;28;19919;-75
2023/01/04 12:12:58;;;;;;;;;;;;;;;13.48;100.00;101383.41;5267190;28;19960;-76
2023/01/04 12:15:38;;;;;;;;;;;;;;;13.50;100.00;101389.38;5258713;28;20308;-75
2023/01/04 12:18:15;;;;;;;;;;;;;;;13.50;100.00;101385.91;5263702;28;19913;-75
2023/01/04 12:20:46;;;;;;;;;;;;;;;13.54;100.00;101387.31;5255019;28;19964;-75
2023/01/04 12:23:17;;;;;;;;;;;;;;;13.52;100.00;101389.22;5261234;28;20002;-75
2023/01/04 12:25:50;;;;;;;;;;;;;;;13.60;100.00;101390.22;5264005;28;19916;-75
2023/01/04 12:28:35;;;;;;;;;;;;;;;13.59;100.00;101383.28;5266801;28;20516;-78
2023/01/04 12:31:19;;;;;;;;;;;;;;;13.59;100.00;101385.09;5262013;28;19921;-76
2023/01/04 12:33:50;;;;;;;;;;;;;;;13.61;100.00;101380.53;5268589;28;19920;-75
2023/01/04 12:36:36;;;;;;;;;;;;;;;13.53;100.00;101381.22;5264484;28;19924;-75
2023/01/04 12:39:10;;;;;;;;;;;;;;;13.63;100.00;101365.41;5271630;28;19916;-75
2023/01/04 12:41:59;;;;;;;;;;;;;;;13.65;100.00;101371.38;5273020;28;19920;-75
2023/01/04 12:44:45;;;;;;;;;;;;;;;13.63;100.00;101378.56;5252678;28;19932;-75
2023/01/04 12:50:10;;;;;;;;;;;;;;;13.71;100.00;101373.44;5269768;28;20377;-75
2023/01/04 12:52:41;;;;;;;;;;;;;;;13.66;100.00;101365.13;5272735;28;19919;-75
2023/01/04 12:55:25;;;;;;;;;;;;;;;13.70;100.00;101355.16;5275030;28;20350;-75
2023/01/04 12:57:57;;;;;;;;;;;;;;;13.75;100.00;101359.06;5275647;28;19957;-74
2023/01/04 13:00:47;;;;;;;;;;;;;;;13.85;100.00;101349.34;5271700;28;20306;-75
2023/01/04 13:03:18;;;;;;;;;;;;;;;13.82;100.00;101367.22;5263113;28;19952;-75
2023/01/04 13:06:06;;;;;;;;;;;;;;;13.80;100.00;101371.81;5264479;28;20326;-75
2023/01/04 13:08:40;;;;;;;;;;;;;;;13.84;100.00;101366.13;5265974;28;19920;-75
2023/01/04 13:11:38;;;;;;;;;;;;;;;13.71;100.00;101360.28;5272096;28;19931;-74
2023/01/04 13:14:19;;;;;;;;;;;;;;;13.65;100.00;101360.03;5268372;28;19924;-74
2023/01/04 13:16:56;;;;;;;;;;;;;;;13.63;100.00;101354.88;5273352;28;20285;-75
2023/01/04 13:19:28;;;;;;;;;;;;;;;13.57;100.00;101361.53;5272694;28;19917;-74
2023/01/04 13:21:59;;;;;;;;;;;;;;;13.71;100.00;101367.34;5270926;28;19961;-75
2023/01/04 13:24:33;;;;;;;;;;;;;;;13.66;100.00;101362.50;5268846;28;20528;-75
2023/01/04 13:27:05;;;;;;;;;;;;;;;13.69;100.00;101370.13;5270302;28;19998;-74
2023/01/04 13:29:39;;;;;;;;;;;;;;;13.69;100.00;101364.03;5268321;28;20360;-74
2023/01/04 13:32:11;;;;;;;;;;;;;;;13.70;100.00;101376.22;5271257;28;19912;-76
2023/01/04 13:34:52;;;;;;;;;;;;;;;13.75;100.00;101377.50;5252272;28;19917;-75
2023/01/04 13:37:28;;;;;;;;;;;;;;;13.77;100.00;101374.72;5270483;28;20377;-75
2023/01/04 13:40:18;;;;;;;;;;;;;;;13.69;100.00;101379.84;5265471;28;20377;-75
2023/01/04 13:42:57;;;;;;;;;;;;;;;13.80;100.00;101375.28;5272863;28;19923;-75
2023/01/04 13:45:47;;;;;;;;;;;;;;;13.84;100.00;101375.81;5272203;28;19912;-75
2023/01/04 13:48:21;;;;;;;;;;;;;;;13.84;100.00;101373.19;5273497;28;19908;-75
2023/01/04 13:50:59;;;;;;;;;;;;;;;13.80;100.00;101363.91;5270332;28;19916;-75
2023/01/04 13:53:31;;;;;;;;;;;;;;;13.85;100.00;101365.16;5273203;28;20374;-74
2023/01/04 13:56:02;;;;;;;;;;;;;;;13.84;100.00;101368.75;5268544;28;19974;-75